createdAt,value
2018-04-02T00:00:45.526Z,61.20
2018-04-02T00:03:12.777Z,61.10
2018-04-02T00:05:39.234Z,61.10
2018-04-02T00:08:05.722Z,61.20
2018-04-02T00:10:32.950Z,61.20
2018-04-02T00:12:59.428Z,61.10
2018-04-02T00:15:25.870Z,61.20
2018-04-02T00:17:52.355Z,61.20
2018-04-02T00:20:18.804Z,61.10
2018-04-02T00:22:45.284Z,61.20
2018-04-02T00:25:11.881Z,61.20
2018-04-02T00:27:38.378Z,61.20
2018-04-02T00:30:04.827Z,61.10
2018-04-02T00:32:31.345Z,61.10
2018-04-02T00:34:57.824Z,61.10
2018-04-02T00:37:24.274Z,61.10
2018-04-02T00:39:50.747Z,61.00
2018-04-02T00:42:17.195Z,61.10
2018-04-02T00:44:43.695Z,61.10
2018-04-02T00:47:10.165Z,61.00
2018-04-02T00:49:36.647Z,61.00
2018-04-02T00:52:03.882Z,61.10
2018-04-02T00:54:30.364Z,61.00
2018-04-02T00:56:56.839Z,61.10
2018-04-02T00:59:24.091Z,61.10
2018-04-02T01:01:50.554Z,61.00
2018-04-02T01:04:17.036Z,60.90
2018-04-02T01:06:44.278Z,61.00
2018-04-02T01:09:10.780Z,61.00
2018-04-02T01:11:38.427Z,61.10
2018-04-02T01:14:05.465Z,60.90
2018-04-02T01:16:32.019Z,61.10
2018-04-02T01:18:58.836Z,60.90
2018-04-02T01:21:25.815Z,61.00
2018-04-02T01:23:52.746Z,61.00
2018-04-02T01:26:19.954Z,60.90
2018-04-02T01:28:47.019Z,61.00
2018-04-02T01:31:13.634Z,60.90
2018-04-02T01:33:40.571Z,60.80
2018-04-02T01:36:07.742Z,60.90
2018-04-02T01:38:34.820Z,61.00
2018-04-02T01:41:01.951Z,61.00
2018-04-02T01:43:29.018Z,60.90
2018-04-02T01:45:56.863Z,60.90
2018-04-02T01:48:23.401Z,61.00
2018-04-02T01:50:49.878Z,60.90
2018-04-02T01:53:17.396Z,60.90
2018-04-02T01:55:43.924Z,60.80
2018-04-02T01:58:11.136Z,61.60
2018-04-02T02:00:37.625Z,60.80
2018-04-02T02:03:04.090Z,60.90
2018-04-02T02:05:30.536Z,60.90
2018-04-02T02:07:57.013Z,60.80
2018-04-02T02:10:23.462Z,60.80
2018-04-02T02:12:49.928Z,60.90
2018-04-02T02:15:16.418Z,60.80
2018-04-02T02:17:42.879Z,60.80
2018-04-02T02:20:09.358Z,60.80
2018-04-02T02:22:35.880Z,60.80
2018-04-02T02:25:03.109Z,60.80
2018-04-02T02:27:29.588Z,60.80
2018-04-02T02:29:56.090Z,60.80
2018-04-02T02:32:22.548Z,60.80
2018-04-02T02:34:49.021Z,60.80
2018-04-02T02:37:15.521Z,60.80
2018-04-02T02:39:41.992Z,60.80
2018-04-02T02:42:08.438Z,60.80
2018-04-02T02:44:34.934Z,60.80
2018-04-02T02:47:02.166Z,60.80
2018-04-02T02:49:28.614Z,60.80
2018-04-02T02:51:55.097Z,60.80
2018-04-02T02:54:21.556Z,60.80
2018-04-02T02:56:48.030Z,60.80
2018-04-02T02:59:15.318Z,60.70
2018-04-02T03:01:42.538Z,60.80
2018-04-02T03:04:08.995Z,60.70
2018-04-02T03:06:35.506Z,60.60
2018-04-02T03:09:02.736Z,60.70
2018-04-02T03:11:29.188Z,60.60
2018-04-02T03:13:55.691Z,60.60
2018-04-02T03:16:22.168Z,60.70
2018-04-02T03:18:49.408Z,60.70
2018-04-02T03:21:15.920Z,60.70
2018-04-02T03:23:42.396Z,60.70
2018-04-02T03:26:08.845Z,60.70
2018-04-02T03:28:35.344Z,60.70
2018-04-02T03:31:01.812Z,60.70
2018-04-02T03:33:28.317Z,60.70
2018-04-02T03:35:54.812Z,60.70
2018-04-02T03:38:21.274Z,60.60
2018-04-02T03:40:47.754Z,60.70
2018-04-02T03:43:14.281Z,60.60
2018-04-02T03:45:40.748Z,60.60
2018-04-02T03:48:07.192Z,60.60
2018-04-02T03:50:33.684Z,60.60
2018-04-02T03:53:00.164Z,60.60
2018-04-02T03:55:27.381Z,60.60
2018-04-02T03:57:53.875Z,60.60
2018-04-02T04:00:20.330Z,60.60
2018-04-02T04:02:46.808Z,60.60
2018-04-02T04:05:14.057Z,60.50
2018-04-02T04:07:40.524Z,60.50
2018-04-02T04:10:06.993Z,60.50
2018-04-02T04:12:33.501Z,60.50
2018-04-02T04:14:59.978Z,60.50
2018-04-02T04:17:26.445Z,60.60
2018-04-02T04:19:52.929Z,60.50
2018-04-02T04:22:20.159Z,60.50
2018-04-02T04:24:46.621Z,60.50
2018-04-02T04:27:13.123Z,60.50
2018-04-02T04:29:39.629Z,60.50
2018-04-02T04:32:06.075Z,60.50
2018-04-02T04:34:32.568Z,60.50
2018-04-02T04:36:59.044Z,60.50
2018-04-02T04:39:25.515Z,60.50
2018-04-02T04:41:52.037Z,60.50
2018-04-02T04:44:18.520Z,60.50
2018-04-02T04:46:44.994Z,60.40
2018-04-02T04:49:11.508Z,60.40
2018-04-02T04:51:37.983Z,60.50
2018-04-02T04:54:04.440Z,60.40
2018-04-02T04:56:30.940Z,60.40
2018-04-02T04:58:58.149Z,60.40
2018-04-02T05:01:24.596Z,60.40
2018-04-02T05:03:51.110Z,60.40
2018-04-02T05:06:17.564Z,60.40
2018-04-02T05:08:44.024Z,60.40
2018-04-02T05:11:10.535Z,60.30
2018-04-02T05:13:37.011Z,60.40
2018-04-02T05:16:03.485Z,60.40
2018-04-02T05:18:29.983Z,60.30
2018-04-02T05:20:57.208Z,60.30
2018-04-02T05:23:23.657Z,60.30
2018-04-02T05:25:50.156Z,60.30
2018-04-02T05:28:16.601Z,60.30
2018-04-02T05:30:43.052Z,60.30
2018-04-02T05:33:09.558Z,60.30
2018-04-02T05:35:36.784Z,60.30
2018-04-02T05:38:03.235Z,60.30
2018-04-02T05:40:29.728Z,60.30
2018-04-02T05:42:56.241Z,60.30
2018-04-02T05:45:22.693Z,60.30
2018-04-02T05:47:49.190Z,60.30
2018-04-02T05:50:15.665Z,60.20
2018-04-02T05:52:42.135Z,60.20
2018-04-02T05:55:09.412Z,57.60
2018-04-02T05:57:36.645Z,58.80
2018-04-02T06:00:03.108Z,58.80
2018-04-02T06:02:29.620Z,59.10
2018-04-02T06:04:56.846Z,59.20
2018-04-02T06:07:23.315Z,59.20
2018-04-02T06:09:49.814Z,59.30
2018-04-02T06:12:17.030Z,59.50
2018-04-02T06:14:43.497Z,59.40
2018-04-02T06:17:10.023Z,59.50
2018-04-02T06:19:36.568Z,59.60
2018-04-02T06:22:03.430Z,60.10
2018-04-02T06:24:30.786Z,59.60
2018-04-02T06:26:57.263Z,59.60
2018-04-02T06:29:24.507Z,59.70
2018-04-02T06:31:50.988Z,59.70
2018-04-02T06:34:18.214Z,57.30
2018-04-02T06:36:44.666Z,57.30
2018-04-02T06:39:11.172Z,57.40
2018-04-02T06:41:37.630Z,58.60
2018-04-02T06:44:04.100Z,58.70
2018-04-02T06:46:31.367Z,59.00
2018-04-02T06:48:57.832Z,58.80
2018-04-02T06:51:24.310Z,59.00
2018-04-02T06:53:50.821Z,59.10
2018-04-02T06:56:17.297Z,59.10
2018-04-02T06:58:43.776Z,59.10
2018-04-02T07:01:11.040Z,59.20
2018-04-02T07:03:37.484Z,59.10
2018-04-02T07:06:03.961Z,59.20
2018-04-02T07:08:31.227Z,59.30
2018-04-02T07:10:57.691Z,59.30
2018-04-02T07:13:24.183Z,59.20
2018-04-02T07:15:50.683Z,59.30
2018-04-02T07:18:17.146Z,59.30
2018-04-02T07:20:43.628Z,59.40
2018-04-02T07:23:10.112Z,59.40
2018-04-02T07:25:36.578Z,59.40
2018-04-02T07:28:03.043Z,59.40
2018-04-02T07:30:29.543Z,59.40
2018-04-02T07:32:56.013Z,59.40
2018-04-02T07:35:22.487Z,59.40
2018-04-02T07:37:49.732Z,59.30
2018-04-02T07:40:16.209Z,59.30
2018-04-02T07:42:42.660Z,59.30
2018-04-02T07:45:09.150Z,58.20
2018-04-02T07:47:36.393Z,58.10
2018-04-02T07:50:02.855Z,58.00
2018-04-02T07:52:29.368Z,58.60
2018-04-02T07:54:55.842Z,59.00
2018-04-02T07:57:22.318Z,59.00
2018-04-02T07:59:48.836Z,58.30
2018-04-02T08:02:15.286Z,58.20
2018-04-02T08:04:42.507Z,58.30
2018-04-02T08:07:09.010Z,58.20
2018-04-02T08:09:36.241Z,58.60
2018-04-02T08:12:02.719Z,58.60
2018-04-02T08:14:30.004Z,58.70
2018-04-02T08:16:56.482Z,58.70
2018-04-02T08:19:23.714Z,58.80
2018-04-02T08:21:50.221Z,58.70
2018-04-02T08:24:17.449Z,58.90
2018-04-02T08:26:43.911Z,58.90
2018-04-02T08:29:10.423Z,59.00
2018-04-02T08:31:36.888Z,59.00
2018-04-02T08:34:03.354Z,59.10
2018-04-02T08:36:29.899Z,59.10
2018-04-02T08:38:56.379Z,59.10
2018-04-02T08:41:22.832Z,59.10
2018-04-02T08:43:49.344Z,59.10
2018-04-02T08:46:15.797Z,59.20
2018-04-02T08:48:42.269Z,59.20
2018-04-02T08:51:08.752Z,59.30
2018-04-02T08:53:35.228Z,59.30
2018-04-02T08:56:01.696Z,59.30
2018-04-02T08:58:28.211Z,59.40
2018-04-02T09:00:55.436Z,59.40
2018-04-02T09:03:21.912Z,59.50
2018-04-02T09:05:48.418Z,59.30
2018-04-02T09:08:15.635Z,59.50
2018-04-02T09:10:42.109Z,59.50
2018-04-02T09:13:08.622Z,59.60
2018-04-02T09:15:35.097Z,59.60
2018-04-02T09:18:01.559Z,59.60
2018-04-02T09:20:28.062Z,59.60
2018-04-02T09:22:54.528Z,59.60
2018-04-02T09:25:20.982Z,60.30
2018-04-02T09:27:47.474Z,59.60
2018-04-02T09:30:13.950Z,59.70
2018-04-02T09:32:40.412Z,59.70
2018-04-02T09:35:06.885Z,59.60
2018-04-02T09:37:33.353Z,59.80
2018-04-02T09:39:59.836Z,59.80
2018-04-02T09:42:27.088Z,59.80
2018-04-02T09:44:53.543Z,59.80
2018-04-02T09:47:20.129Z,59.80
2018-04-02T09:49:46.619Z,59.80
2018-04-02T09:52:13.107Z,59.80
2018-04-02T09:54:39.576Z,58.40
2018-04-02T09:57:06.071Z,58.50
2018-04-02T09:59:32.607Z,58.60
2018-04-02T10:01:59.037Z,58.60
2018-04-02T10:04:25.548Z,58.50
2018-04-02T10:06:52.009Z,59.00
2018-04-02T10:09:19.247Z,59.00
2018-04-02T10:11:45.746Z,59.10
2018-04-02T10:14:12.958Z,59.10
2018-04-02T10:16:39.420Z,59.10
2018-04-02T10:19:05.947Z,58.90
2018-04-02T10:21:33.164Z,59.10
2018-04-02T10:23:59.688Z,59.10
2018-04-02T10:26:26.149Z,59.20
2018-04-02T10:28:52.645Z,59.30
2018-04-02T10:31:19.096Z,59.30
2018-04-02T10:33:45.594Z,59.40
2018-04-02T10:36:12.040Z,59.40
2018-04-02T10:38:38.519Z,59.50
2018-04-02T10:41:05.775Z,59.60
2018-04-02T10:43:32.245Z,59.60
2018-04-02T10:45:58.707Z,59.60
2018-04-02T10:48:25.198Z,59.80
2018-04-02T10:50:51.668Z,59.80
2018-04-02T10:53:18.144Z,59.80
2018-04-02T10:55:44.716Z,59.90
2018-04-02T10:58:11.161Z,59.90
2018-04-02T11:00:37.633Z,59.90
2018-04-02T11:03:04.126Z,60.00
2018-04-02T11:05:31.351Z,59.70
2018-04-02T11:07:57.796Z,59.70
2018-04-02T11:10:24.291Z,59.60
2018-04-02T11:12:50.761Z,59.40
2018-04-02T11:15:17.220Z,59.40
2018-04-02T11:17:43.736Z,59.40
2018-04-02T11:20:10.188Z,59.30
2018-04-02T11:22:36.630Z,59.30
2018-04-02T11:25:03.234Z,59.30
2018-04-02T11:27:29.695Z,59.30
2018-04-02T11:29:56.146Z,59.40
2018-04-02T11:32:22.712Z,59.40
2018-04-02T11:34:49.185Z,59.40
2018-04-02T11:37:15.637Z,59.40
2018-04-02T11:39:42.131Z,59.40
2018-04-02T11:42:09.357Z,59.50
2018-04-02T11:44:35.823Z,59.50
2018-04-02T11:47:03.177Z,59.60
2018-04-02T11:49:29.721Z,59.60
2018-04-02T11:51:56.937Z,59.40
2018-04-02T11:54:24.966Z,59.40
2018-04-02T11:56:52.325Z,58.30
2018-04-02T11:59:18.789Z,58.30
2018-04-02T12:01:45.295Z,59.30
2018-04-02T12:04:11.879Z,59.30
2018-04-02T12:06:38.352Z,59.30
2018-04-02T12:09:04.839Z,59.30
2018-04-02T12:11:31.320Z,59.50
2018-04-02T12:13:58.556Z,59.60
2018-04-02T12:16:25.061Z,59.60
2018-04-02T12:18:51.535Z,59.70
2018-04-02T12:21:17.997Z,59.80
2018-04-02T12:23:44.535Z,59.80
2018-04-02T12:26:12.090Z,59.90
2018-04-02T12:28:38.598Z,59.90
2018-04-02T12:31:05.113Z,59.90
2018-04-02T12:33:31.671Z,59.90
2018-04-02T12:35:58.119Z,60.00
2018-04-02T12:38:24.676Z,60.00
2018-04-02T12:40:51.461Z,60.10
2018-04-02T12:43:17.984Z,60.10
2018-04-02T12:45:44.507Z,60.10
2018-04-02T12:48:10.960Z,60.20
2018-04-02T12:50:37.451Z,60.30
2018-04-02T12:53:03.951Z,60.30
2018-04-02T12:55:30.660Z,61.00
2018-04-02T12:57:57.109Z,60.40
2018-04-02T13:00:23.716Z,60.40
2018-04-02T13:02:50.176Z,60.40
2018-04-02T13:05:16.648Z,60.50
2018-04-02T13:07:43.139Z,60.50
2018-04-02T13:10:09.608Z,60.50
2018-04-02T13:12:36.083Z,60.50
2018-04-02T13:15:02.562Z,60.50
2018-04-02T13:17:29.027Z,60.50
2018-04-02T13:19:55.491Z,60.60
2018-04-02T13:22:21.982Z,60.60
2018-04-02T13:24:49.245Z,60.70
2018-04-02T13:27:15.699Z,60.70
2018-04-02T13:29:42.192Z,60.70
2018-04-02T13:32:08.650Z,60.70
2018-04-02T13:34:35.115Z,60.80
2018-04-02T13:37:01.636Z,60.50
2018-04-02T13:39:28.112Z,59.90
2018-04-02T13:41:55.335Z,59.90
2018-04-02T13:44:21.849Z,59.90
2018-04-02T13:46:49.089Z,60.10
2018-04-02T13:49:15.549Z,60.00
2018-04-02T13:51:42.073Z,59.70
2018-04-02T13:54:09.169Z,59.70
2018-04-02T13:56:40.426Z,59.80
2018-04-02T13:59:07.674Z,59.80
2018-04-02T14:01:34.193Z,59.90
2018-04-02T14:04:00.636Z,60.00
2018-04-02T14:06:27.126Z,60.10
2018-04-02T14:08:53.595Z,59.30
2018-04-02T14:11:20.824Z,60.00
2018-04-02T14:13:47.319Z,60.00
2018-04-02T14:16:13.768Z,60.10
2018-04-02T14:18:40.231Z,60.10
2018-04-02T14:21:06.724Z,60.10
2018-04-02T14:23:33.196Z,60.20
2018-04-02T14:25:59.683Z,60.30
2018-04-02T14:28:26.162Z,60.40
2018-04-02T14:30:52.642Z,60.40
2018-04-02T14:33:19.896Z,59.30
2018-04-02T14:35:46.552Z,59.20
2018-04-02T14:38:13.082Z,60.20
2018-04-02T14:40:39.722Z,60.30
2018-04-02T14:43:06.334Z,60.30
2018-04-02T14:45:32.888Z,60.30
2018-04-02T14:47:59.371Z,60.40
2018-04-02T14:50:25.868Z,60.50
2018-04-02T14:52:52.313Z,60.50
2018-04-02T14:55:19.566Z,60.60
2018-04-02T14:57:46.051Z,60.60
2018-04-02T15:00:13.275Z,60.70
2018-04-02T15:02:39.844Z,60.70
2018-04-02T15:05:06.433Z,60.70
2018-04-02T15:07:32.922Z,60.80
2018-04-02T15:12:30.962Z,60.80
2018-04-02T15:14:57.421Z,60.90
2018-04-02T15:17:23.900Z,60.90
2018-04-02T15:19:50.421Z,60.50
2018-04-02T15:22:16.881Z,61.10
2018-04-02T15:24:43.360Z,61.00
2018-04-02T15:27:09.855Z,61.10
2018-04-02T15:29:37.090Z,61.00
2018-04-02T15:32:04.086Z,61.00
2018-04-02T15:34:30.591Z,61.10
2018-04-02T15:36:57.066Z,60.90
2018-04-02T15:39:23.550Z,61.10
2018-04-02T15:41:50.061Z,61.10
2018-04-02T15:44:16.536Z,61.30
2018-04-02T15:46:43.119Z,61.20
2018-04-02T15:49:09.675Z,61.20
2018-04-02T15:51:36.253Z,61.30
2018-04-02T15:54:03.223Z,61.40
2018-04-02T15:56:29.751Z,61.50
2018-04-02T15:58:56.207Z,61.40
2018-04-02T16:01:22.853Z,61.60
2018-04-02T16:03:49.351Z,61.50
2018-04-02T16:06:15.827Z,61.60
2018-04-02T16:08:42.302Z,61.60
2018-04-02T16:11:08.817Z,61.70
2018-04-02T16:13:35.297Z,61.60
2018-04-02T16:16:02.848Z,61.60
2018-04-02T16:18:29.366Z,61.70
2018-04-02T16:20:56.606Z,61.70
2018-04-02T16:23:23.255Z,61.70
2018-04-02T16:25:49.790Z,61.70
2018-04-02T16:28:16.432Z,61.80
2018-04-02T16:30:43.931Z,61.90
2018-04-02T16:33:11.426Z,61.80
2018-04-02T16:35:37.955Z,61.80
2018-04-02T16:38:05.203Z,61.90
2018-04-02T16:40:31.704Z,61.80
2018-04-02T16:42:58.204Z,61.90
2018-04-02T16:45:24.671Z,61.90
2018-04-02T16:47:51.166Z,62.00
2018-04-02T16:50:17.652Z,61.90
2018-04-02T16:52:45.140Z,62.00
2018-04-02T16:55:11.652Z,61.90
2018-04-02T16:57:38.289Z,62.00
2018-04-02T17:00:04.975Z,61.90
2018-04-02T17:02:31.473Z,62.00
2018-04-02T17:04:57.947Z,62.00
2018-04-02T17:07:24.438Z,62.10
2018-04-02T17:09:50.943Z,62.00
2018-04-02T17:12:18.169Z,62.10
2018-04-02T17:14:44.637Z,62.00
2018-04-02T17:17:11.148Z,62.10
2018-04-02T17:19:37.847Z,62.10
2018-04-02T17:22:04.638Z,62.80
2018-04-02T17:24:31.161Z,62.10
2018-04-02T17:26:57.622Z,62.00
2018-04-02T17:29:24.094Z,62.10
2018-04-02T17:31:50.631Z,61.90
2018-04-02T17:34:17.092Z,61.50
2018-04-02T17:36:43.554Z,61.50
2018-04-02T17:39:10.158Z,61.20
2018-04-02T17:41:36.735Z,61.10
2018-04-02T17:44:03.657Z,61.30
2018-04-02T17:46:30.174Z,61.30
2018-04-02T17:48:56.810Z,61.10
2018-04-02T17:51:23.274Z,61.30
2018-04-02T17:53:49.814Z,61.40
2018-04-02T17:56:16.365Z,61.50
2018-04-02T17:58:44.908Z,61.50
2018-04-02T18:01:11.414Z,59.90
2018-04-02T18:03:37.896Z,59.70
2018-04-02T18:06:04.524Z,60.80
2018-04-02T18:08:31.014Z,61.10
2018-04-02T18:10:57.480Z,61.00
2018-04-02T18:13:25.089Z,61.00
2018-04-02T18:15:51.607Z,61.10
2018-04-02T18:18:20.125Z,61.10
2018-04-02T18:20:46.596Z,61.20
2018-04-02T18:23:13.105Z,61.30
2018-04-02T18:25:39.632Z,61.30
2018-04-02T18:28:06.121Z,61.40
2018-04-02T18:30:32.641Z,61.30
2018-04-02T18:32:59.113Z,61.40
2018-04-02T18:35:25.782Z,61.50
2018-04-02T18:37:53.125Z,61.60
2018-04-02T18:40:19.613Z,61.60
2018-04-02T18:42:46.088Z,61.50
2018-04-02T18:45:13.684Z,61.70
2018-04-02T18:47:40.973Z,61.70
2018-04-02T18:50:07.492Z,61.80
2018-04-02T18:52:34.927Z,61.80
2018-04-02T18:55:01.408Z,61.80
2018-04-02T18:57:27.971Z,61.20
2018-04-02T18:59:54.487Z,61.50
2018-04-02T19:02:21.084Z,61.20
2018-04-02T19:04:47.755Z,61.30
2018-04-02T19:07:14.291Z,61.40
2018-04-02T19:09:40.774Z,61.10
2018-04-02T19:12:08.232Z,61.00
2018-04-02T19:14:35.857Z,60.90
2018-04-02T19:17:02.464Z,61.00
2018-04-02T19:19:29.069Z,61.10
2018-04-02T19:21:55.634Z,61.20
2018-04-02T19:24:22.104Z,61.20
2018-04-02T19:26:48.586Z,61.30
2018-04-02T19:29:15.945Z,61.40
2018-04-02T19:31:42.420Z,61.40
2018-04-02T19:34:08.926Z,61.40
2018-04-02T19:36:35.570Z,61.40
2018-04-02T19:39:02.278Z,61.40
2018-04-02T19:41:28.765Z,61.40
2018-04-02T19:43:55.284Z,61.50
2018-04-02T19:46:21.852Z,61.50
2018-04-02T19:48:48.366Z,61.50
2018-04-02T19:51:15.003Z,61.50
2018-04-02T19:53:41.480Z,61.50
2018-04-02T19:56:08.719Z,61.50
2018-04-02T19:58:35.275Z,61.50
2018-04-02T20:01:01.816Z,61.50
2018-04-02T20:03:28.305Z,61.30
2018-04-02T20:05:54.858Z,61.30
2018-04-02T20:08:21.332Z,61.20
2018-04-02T20:10:47.837Z,61.10
2018-04-02T20:13:14.363Z,61.20
2018-04-02T20:15:40.823Z,61.20
2018-04-02T20:18:08.194Z,61.20
2018-04-02T20:20:34.750Z,61.20
2018-04-02T20:23:01.370Z,61.30
2018-04-02T20:25:27.795Z,61.30
2018-04-02T20:27:54.352Z,61.30
2018-04-02T20:30:21.602Z,61.40
2018-04-02T20:32:48.082Z,61.40
2018-04-02T20:35:15.425Z,61.50
2018-04-02T20:37:41.895Z,61.30
2018-04-02T20:40:08.378Z,61.30
2018-04-02T20:42:35.644Z,61.40
2018-04-02T20:45:02.219Z,61.30
2018-04-02T20:47:29.559Z,61.30
2018-04-02T20:49:56.104Z,61.30
2018-04-02T20:52:22.581Z,61.40
2018-04-02T20:54:49.242Z,61.40
2018-04-02T20:57:15.794Z,61.30
2018-04-02T20:59:42.383Z,61.30
2018-04-02T21:02:08.911Z,61.40
2018-04-02T21:04:35.435Z,61.30
2018-04-02T21:07:02.772Z,61.40
2018-04-02T21:09:30.042Z,61.30
2018-04-02T21:11:56.599Z,61.30
2018-04-02T21:14:23.076Z,61.30
2018-04-02T21:16:49.574Z,61.40
2018-04-02T21:19:16.100Z,61.30
2018-04-02T21:21:42.628Z,61.30
2018-04-02T21:24:09.092Z,61.30
2018-04-02T21:26:35.616Z,61.30
2018-04-02T21:29:02.090Z,61.30
2018-04-02T21:31:28.599Z,61.20
2018-04-02T21:33:55.106Z,61.20
2018-04-02T21:36:21.576Z,61.20
2018-04-02T21:38:48.061Z,61.20
2018-04-02T21:41:14.557Z,61.20
2018-04-02T21:43:41.848Z,61.80
2018-04-02T21:46:08.329Z,61.20
2018-04-02T21:48:34.846Z,61.10
2018-04-02T21:51:01.323Z,61.10
2018-04-02T21:53:27.795Z,61.10
2018-04-02T21:55:54.560Z,61.10
2018-04-02T21:58:21.038Z,61.10
2018-04-02T22:00:47.517Z,61.10
2018-04-02T22:03:14.088Z,61.10
2018-04-02T22:05:40.624Z,61.10
2018-04-02T22:08:08.242Z,61.10
2018-04-02T22:10:35.125Z,61.10
2018-04-02T22:13:01.946Z,61.10
2018-04-02T22:15:29.076Z,61.10
2018-04-02T22:17:57.650Z,61.10
2018-04-02T22:20:25.576Z,61.10
2018-04-02T22:22:52.724Z,61.10
2018-04-02T22:25:19.930Z,61.00
2018-04-02T22:27:46.940Z,61.00
2018-04-02T22:30:13.776Z,61.10
2018-04-02T22:32:40.781Z,61.00
2018-04-02T22:37:33.537Z,60.50
2018-04-02T22:40:01.040Z,60.70
2018-04-02T22:42:28.120Z,60.20
2018-04-02T22:44:54.775Z,60.10
2018-04-02T22:47:21.539Z,60.30
2018-04-02T22:49:51.227Z,60.40
2018-04-02T22:52:17.828Z,60.50
2018-04-02T22:54:45.120Z,60.50
2018-04-02T22:57:13.521Z,60.50
2018-04-02T22:59:40.079Z,60.50
2018-04-02T23:02:06.816Z,60.50
2018-04-02T23:04:33.282Z,60.60
2018-04-02T23:07:00.543Z,60.70
2018-04-02T23:09:27.873Z,61.40
2018-04-02T23:11:54.348Z,60.70
2018-04-02T23:14:20.889Z,60.70
2018-04-02T23:16:47.394Z,60.70
2018-04-02T23:19:13.882Z,60.70
2018-04-02T23:21:41.104Z,60.80
2018-04-02T23:24:07.622Z,60.80
2018-04-02T23:26:34.852Z,60.80
2018-04-02T23:29:01.332Z,60.80
2018-04-02T23:31:27.838Z,60.80
2018-04-02T23:33:54.326Z,60.80
2018-04-02T23:36:21.053Z,60.30
2018-04-02T23:38:47.653Z,60.60
2018-04-02T23:41:14.131Z,60.20
2018-04-02T23:43:40.608Z,59.80
2018-04-02T23:46:07.881Z,60.00
2018-04-02T23:48:35.134Z,60.00
2018-04-02T23:51:02.438Z,60.20
2018-04-02T23:53:29.708Z,60.20
2018-04-02T23:55:56.165Z,60.20
2018-04-02T23:58:22.659Z,60.30
